createdAt,value
2022-08-05T00:01:28.522Z,24.00
2022-08-05T00:03:57.153Z,24.00
2022-08-05T00:06:32.312Z,24.00
2022-08-05T00:09:01.064Z,24.10
2022-08-05T00:11:30.508Z,24.10
2022-08-05T00:14:17.017Z,24.00
2022-08-05T00:16:52.561Z,23.90
2022-08-05T00:19:22.680Z,23.70
2022-08-05T00:21:50.256Z,23.40
2022-08-05T00:24:19.124Z,23.30
2022-08-05T00:26:52.923Z,23.10
2022-08-05T00:29:25.720Z,23.00
2022-08-05T00:32:10.920Z,22.90
2022-08-05T00:35:04.465Z,22.90
2022-08-05T00:37:50.856Z,22.80
2022-08-05T00:40:17.885Z,22.70
2022-08-05T00:42:54.868Z,22.70
2022-08-05T00:45:28.239Z,22.70
2022-08-05T00:48:07.412Z,22.80
2022-08-05T00:50:34.629Z,22.80
2022-08-05T00:53:02.599Z,22.90
2022-08-05T00:55:42.428Z,23.00
2022-08-05T00:58:16.879Z,23.00
2022-08-05T01:00:48.026Z,23.00
2022-08-05T01:03:22.654Z,23.00
2022-08-05T01:05:51.398Z,23.00
2022-08-05T01:08:40.620Z,23.00
2022-08-05T01:11:22.567Z,23.00
2022-08-05T01:14:28.273Z,23.00
2022-08-05T01:17:08.275Z,23.00
2022-08-05T01:20:03.810Z,22.90
2022-08-05T01:23:15.179Z,22.90
2022-08-05T01:26:18.687Z,22.80
2022-08-05T01:29:05.032Z,22.80
2022-08-05T01:31:49.626Z,22.80
2022-08-05T01:34:37.560Z,22.80
2022-08-05T01:37:11.081Z,22.70
2022-08-05T01:39:54.816Z,22.70
2022-08-05T01:42:27.624Z,22.70
2022-08-05T01:44:56.512Z,22.70
2022-08-05T01:47:38.763Z,22.70
2022-08-05T01:50:15.707Z,22.70
2022-08-05T01:52:49.774Z,22.60
2022-08-05T01:55:20.418Z,22.60
2022-08-05T01:58:29.094Z,22.60
2022-08-05T02:00:39.473Z,22.50
2022-08-05T02:03:32.020Z,22.50
2022-08-05T02:06:23.952Z,22.50
2022-08-05T02:08:57.800Z,22.40
2022-08-05T02:11:33.436Z,22.30
2022-08-05T02:14:13.026Z,22.10
2022-08-05T02:16:52.294Z,22.00
2022-08-05T02:19:28.971Z,21.80
2022-08-05T02:22:27.278Z,21.60
2022-08-05T02:25:08.513Z,21.50
2022-08-05T02:27:59.497Z,21.40
2022-08-05T02:30:35.160Z,21.40
2022-08-05T02:33:03.384Z,21.40
2022-08-05T02:35:38.110Z,21.40
2022-08-05T02:38:19.462Z,21.40
2022-08-05T02:40:47.001Z,21.40
2022-08-05T02:43:16.658Z,21.50
2022-08-05T02:45:51.558Z,21.50
2022-08-05T02:48:22.331Z,21.60
2022-08-05T02:51:03.239Z,21.50
2022-08-05T02:53:39.512Z,21.50
2022-08-05T02:56:09.022Z,21.40
2022-08-05T02:58:37.243Z,21.30
2022-08-05T03:01:16.880Z,21.20
2022-08-05T03:04:03.277Z,21.10
2022-08-05T03:06:55.443Z,21.00
2022-08-05T03:09:27.103Z,21.10
2022-08-05T03:12:04.651Z,21.10
2022-08-05T03:14:31.361Z,21.10
2022-08-05T03:16:59.141Z,21.10
2022-08-05T03:19:34.245Z,21.00
2022-08-05T03:22:05.004Z,21.00
2022-08-05T03:24:47.319Z,21.00
2022-08-05T03:27:19.332Z,20.90
2022-08-05T03:30:08.388Z,20.90
2022-08-05T03:32:33.507Z,20.80
2022-08-05T03:35:00.755Z,20.80
2022-08-05T03:37:27.711Z,20.80
2022-08-05T03:40:01.617Z,20.80
2022-08-05T03:42:32.352Z,20.90
2022-08-05T03:45:01.600Z,20.90
2022-08-05T03:47:47.520Z,20.80
2022-08-05T03:50:16.074Z,20.80
2022-08-05T03:55:34.662Z,20.90
2022-08-05T03:56:06.286Z,21.00
2022-08-05T03:58:30.986Z,21.00
2022-08-05T04:01:01.415Z,21.00
2022-08-05T04:03:35.895Z,21.20
2022-08-05T04:06:06.650Z,21.40
2022-08-05T04:08:37.118Z,21.50
2022-08-05T04:11:08.401Z,21.60
2022-08-05T04:13:50.647Z,21.60
2022-08-05T04:16:24.197Z,21.60
2022-08-05T04:18:54.854Z,21.50
2022-08-05T04:22:08.894Z,21.40
2022-08-05T04:24:18.877Z,21.30
2022-08-05T04:26:46.772Z,21.20
2022-08-05T04:29:13.487Z,21.10
2022-08-05T04:31:41.370Z,21.00
2022-08-05T04:34:31.450Z,21.00
2022-08-05T04:36:56.558Z,20.90
2022-08-05T04:39:23.381Z,20.80
2022-08-05T04:41:51.614Z,20.80
2022-08-05T04:44:21.134Z,20.80
2022-08-05T04:46:55.737Z,20.70
2022-08-05T04:49:24.836Z,20.80
2022-08-05T04:52:07.658Z,20.80
2022-08-05T04:54:34.570Z,20.70
2022-08-05T04:57:01.489Z,20.70
2022-08-05T04:59:38.777Z,20.80
2022-08-05T05:02:36.304Z,20.90
2022-08-05T05:05:02.753Z,21.00
2022-08-05T05:07:32.134Z,21.10
2022-08-05T05:10:02.222Z,21.20
2022-08-05T05:12:30.626Z,21.30
2022-08-05T05:14:57.459Z,21.40
2022-08-05T05:17:55.949Z,21.40
2022-08-05T05:20:13.428Z,21.30
2022-08-05T05:22:41.346Z,21.20
2022-08-05T05:25:16.117Z,21.00
2022-08-05T05:27:53.804Z,21.00
2022-08-05T05:30:30.854Z,21.00
2022-08-05T05:33:08.783Z,21.00
2022-08-05T05:35:44.616Z,20.90
2022-08-05T05:38:13.332Z,20.80
2022-08-05T05:40:48.358Z,20.70
2022-08-05T05:43:22.091Z,20.50
2022-08-05T05:46:07.640Z,20.50
2022-08-05T05:48:44.531Z,20.40
2022-08-05T05:51:15.742Z,20.50
2022-08-05T05:53:54.559Z,20.60
2022-08-05T05:56:32.984Z,20.60
2022-08-05T05:59:06.415Z,20.60
2022-08-05T06:01:39.649Z,20.60
2022-08-05T06:04:12.702Z,20.70
2022-08-05T06:06:42.666Z,20.80
2022-08-05T06:09:18.062Z,20.90
2022-08-05T06:12:02.080Z,20.90
2022-08-05T06:14:34.748Z,20.90
2022-08-05T06:17:21.991Z,21.00
2022-08-05T06:19:56.896Z,21.00
2022-08-05T06:22:28.978Z,21.10
2022-08-05T06:24:55.783Z,21.20
2022-08-05T06:28:11.408Z,21.20
2022-08-05T06:30:19.949Z,21.20
2022-08-05T06:32:48.367Z,21.10
2022-08-05T06:36:01.992Z,21.10
2022-08-05T06:38:10.104Z,21.10
2022-08-05T06:40:42.108Z,21.20
2022-08-05T06:43:59.421Z,21.20
2022-08-05T06:46:03.723Z,21.30
2022-08-05T06:48:47.244Z,21.30
2022-08-05T06:51:29.013Z,21.30
2022-08-05T06:53:58.716Z,21.40
2022-08-05T06:56:26.393Z,21.30
2022-08-05T06:58:54.385Z,21.30
2022-08-05T07:01:21.306Z,21.20
2022-08-05T07:03:49.779Z,21.10
2022-08-05T07:06:17.347Z,21.00
2022-08-05T07:08:54.705Z,21.00
2022-08-05T07:11:25.185Z,21.00
2022-08-05T07:14:20.064Z,20.90
2022-08-05T07:18:00.013Z,21.00
2022-08-05T07:22:28.520Z,20.90
2022-08-05T07:24:59.191Z,20.90
2022-08-05T07:27:27.279Z,20.70
2022-08-05T07:30:24.331Z,20.50
2022-08-05T07:32:43.934Z,20.40
2022-08-05T07:36:04.657Z,20.40
2022-08-05T07:37:59.744Z,20.30
2022-08-05T07:40:32.609Z,20.30
2022-08-05T07:42:59.888Z,20.10
2022-08-05T07:45:57.825Z,20.10
2022-08-05T07:49:00.657Z,20.10
2022-08-05T07:51:08.597Z,20.00
2022-08-05T07:53:51.662Z,20.00
2022-08-05T07:56:59.841Z,19.90
2022-08-05T07:59:08.565Z,19.80
2022-08-05T08:01:35.588Z,19.70
2022-08-05T08:04:34.355Z,19.60
2022-08-05T08:07:05.484Z,19.60
2022-08-05T08:09:33.848Z,19.50
2022-08-05T08:12:09.071Z,19.60
2022-08-05T08:14:38.180Z,19.50
2022-08-05T08:17:16.077Z,19.70
2022-08-05T08:20:22.727Z,19.70
2022-08-05T08:22:32.391Z,19.70
2022-08-05T08:25:03.366Z,19.70
2022-08-05T08:27:40.138Z,19.60
2022-08-05T08:30:19.627Z,19.60
2022-08-05T08:33:02.723Z,19.60
2022-08-05T08:35:34.771Z,19.70
2022-08-05T08:38:02.094Z,19.60
2022-08-05T08:40:30.026Z,19.60
2022-08-05T08:42:58.524Z,19.60
2022-08-05T08:45:46.699Z,19.60
2022-08-05T08:48:41.317Z,19.50
2022-08-05T08:51:30.683Z,19.50
2022-08-05T08:53:52.297Z,19.70
2022-08-05T08:56:23.465Z,19.70
2022-08-05T08:58:54.713Z,19.70
2022-08-05T09:01:21.777Z,19.70
2022-08-05T09:03:55.416Z,19.70
2022-08-05T09:06:29.501Z,19.80
2022-08-05T09:08:58.808Z,19.70
2022-08-05T09:11:53.180Z,19.70
2022-08-05T09:14:57.714Z,19.70
2022-08-05T09:17:05.301Z,19.60
2022-08-05T09:20:01.691Z,19.50
2022-08-05T09:22:32.126Z,19.50
2022-08-05T09:25:13.944Z,19.50
2022-08-05T09:28:05.220Z,19.60
2022-08-05T09:30:34.750Z,19.70
2022-08-05T09:33:02.423Z,19.60
2022-08-05T09:35:31.541Z,19.60
2022-08-05T09:38:16.199Z,19.70
2022-08-05T09:40:52.413Z,19.60
2022-08-05T09:43:40.560Z,19.70
2022-08-05T09:46:27.473Z,19.70
2022-08-05T09:49:08.239Z,19.70
2022-08-05T09:51:48.967Z,19.70
2022-08-05T09:54:29.568Z,19.80
2022-08-05T09:56:57.673Z,19.90
2022-08-05T09:59:28.312Z,19.90
2022-08-05T10:01:57.928Z,19.80
2022-08-05T10:04:36.232Z,19.80
2022-08-05T10:07:19.998Z,19.70
2022-08-05T10:10:14.042Z,19.80
2022-08-05T10:12:57.011Z,19.90
2022-08-05T10:15:34.135Z,19.70
2022-08-05T10:18:16.679Z,19.60
2022-08-05T10:20:52.917Z,19.70
2022-08-05T10:23:55.450Z,19.80
2022-08-05T10:26:15.057Z,19.80
2022-08-05T10:28:46.684Z,19.90
2022-08-05T10:32:50.684Z,19.90
2022-08-05T10:34:03.616Z,19.90
2022-08-05T10:36:30.891Z,20.00
2022-08-05T10:39:05.273Z,20.10
2022-08-05T10:42:07.853Z,20.10
2022-08-05T10:44:39.254Z,20.20
2022-08-05T10:47:26.168Z,20.10
2022-08-05T10:50:32.863Z,20.10
2022-08-05T10:53:01.163Z,20.20
2022-08-05T10:55:38.447Z,20.20
2022-08-05T10:58:17.964Z,20.10
2022-08-05T11:00:48.426Z,20.10
2022-08-05T11:03:25.915Z,20.00
2022-08-05T11:06:15.579Z,20.00
2022-08-05T11:09:45.540Z,20.10
2022-08-05T11:12:41.972Z,20.20
2022-08-05T11:15:20.755Z,20.40
2022-08-05T11:18:00.451Z,20.50
2022-08-05T11:20:44.016Z,20.50
2022-08-05T11:23:49.853Z,20.40
2022-08-05T11:26:28.171Z,20.40
2022-08-05T11:29:05.195Z,20.50
2022-08-05T11:31:56.608Z,20.60
2022-08-05T11:34:51.575Z,20.60
2022-08-05T11:38:30.350Z,20.70
2022-08-05T11:41:34.444Z,20.80
2022-08-05T11:44:12.902Z,21.00
2022-08-05T11:47:11.132Z,21.00
2022-08-05T11:49:49.775Z,21.00
2022-08-05T11:52:29.171Z,20.90
2022-08-05T11:54:58.721Z,20.80
2022-08-05T11:58:08.639Z,21.00
2022-08-05T12:00:30.341Z,21.30
2022-08-05T12:02:57.777Z,21.40
2022-08-05T12:05:32.480Z,21.50
2022-08-05T12:08:09.731Z,21.40
2022-08-05T12:10:45.412Z,21.40
2022-08-05T12:13:27.713Z,21.50
2022-08-05T12:16:14.607Z,21.50
2022-08-05T12:18:52.186Z,21.60
2022-08-05T12:21:29.648Z,21.90
2022-08-05T12:24:07.079Z,22.00
2022-08-05T12:26:35.343Z,22.00
2022-08-05T12:29:09.327Z,22.10
2022-08-05T12:31:49.738Z,22.20
2022-08-05T12:34:29.183Z,22.00
2022-08-05T12:36:58.533Z,22.00
2022-08-05T12:39:34.342Z,22.00
2022-08-05T12:42:20.469Z,22.00
2022-08-05T12:44:47.853Z,22.00
2022-08-05T12:47:28.831Z,21.90
2022-08-05T12:50:03.969Z,22.00
2022-08-05T12:52:39.132Z,22.10
2022-08-05T12:55:25.843Z,22.00
2022-08-05T12:58:38.184Z,22.00
2022-08-05T13:02:04.064Z,22.00
2022-08-05T13:03:38.888Z,22.20
2022-08-05T13:06:11.867Z,22.30
2022-08-05T13:08:39.196Z,22.40
2022-08-05T13:11:07.875Z,22.50
2022-08-05T13:14:06.685Z,22.80
2022-08-05T13:16:27.798Z,22.90
2022-08-05T13:18:57.695Z,23.10
2022-08-05T13:21:28.238Z,23.20
2022-08-05T13:24:08.733Z,23.30
2022-08-05T13:26:36.082Z,23.20
2022-08-05T13:29:03.003Z,23.00
2022-08-05T13:32:02.903Z,22.80
2022-08-05T13:34:23.364Z,22.50
2022-08-05T13:36:53.197Z,22.50
2022-08-05T13:40:13.838Z,22.50
2022-08-05T13:42:07.693Z,22.40
2022-08-05T13:44:45.413Z,22.50
2022-08-05T13:47:28.116Z,22.70
2022-08-05T13:50:04.379Z,22.80
2022-08-05T13:52:35.493Z,22.90
2022-08-05T13:55:07.614Z,22.90
2022-08-05T13:57:50.718Z,22.90
2022-08-05T14:00:27.745Z,22.90
2022-08-05T14:02:56.615Z,22.90
2022-08-05T14:05:48.011Z,23.00
2022-08-05T14:08:20.143Z,23.00
2022-08-05T14:10:48.603Z,23.20
2022-08-05T14:13:15.703Z,23.30
2022-08-05T14:16:06.890Z,23.20
2022-08-05T14:18:29.545Z,23.10
2022-08-05T14:20:56.229Z,22.80
2022-08-05T14:23:26.038Z,22.50
2022-08-05T14:25:58.921Z,22.40
2022-08-05T14:28:30.651Z,22.20
2022-08-05T14:31:01.543Z,22.20
2022-08-05T14:33:32.632Z,22.20
2022-08-05T14:36:16.018Z,22.20
2022-08-05T14:38:49.575Z,22.20
2022-08-05T14:41:17.720Z,22.30
2022-08-05T14:43:57.673Z,22.50
2022-08-05T14:46:30.691Z,22.70
2022-08-05T14:49:06.483Z,22.80
2022-08-05T14:51:33.947Z,22.90
2022-08-05T14:54:28.503Z,22.90
2022-08-05T14:56:47.449Z,22.90
2022-08-05T14:59:15.290Z,23.00
2022-08-05T15:01:48.183Z,23.00
2022-08-05T15:04:17.211Z,23.20
2022-08-05T15:06:49.070Z,23.30
2022-08-05T15:09:52.587Z,23.40
2022-08-05T15:12:06.045Z,23.40
2022-08-05T15:14:34.436Z,23.40
2022-08-05T15:17:05.347Z,23.40
2022-08-05T15:19:37.346Z,23.30
2022-08-05T15:22:05.869Z,23.40
2022-08-05T15:24:32.851Z,23.30
2022-08-05T15:26:59.698Z,23.20
2022-08-05T15:29:29.890Z,23.30
2022-08-05T15:32:03.122Z,23.30
2022-08-05T15:34:32.180Z,23.30
2022-08-05T15:37:06.275Z,23.20
2022-08-05T15:40:58.277Z,23.20
2022-08-05T15:42:54.137Z,23.10
2022-08-05T15:45:09.755Z,23.10
2022-08-05T15:47:40.014Z,23.20
2022-08-05T15:50:08.051Z,23.30
2022-08-05T15:52:52.694Z,23.30
2022-08-05T15:55:25.113Z,23.30
2022-08-05T15:58:08.237Z,23.30
2022-08-05T16:00:50.921Z,23.20
2022-08-05T16:03:22.061Z,23.20
2022-08-05T16:05:52.614Z,23.20
2022-08-05T16:08:22.582Z,23.10
2022-08-05T16:10:57.630Z,23.00
2022-08-05T16:13:34.291Z,23.00
2022-08-05T16:16:05.135Z,23.00
2022-08-05T16:18:35.086Z,22.90
2022-08-05T16:21:19.085Z,23.00
2022-08-05T16:23:54.062Z,23.10
2022-08-05T16:26:26.610Z,23.20
2022-08-05T16:28:54.612Z,23.20
2022-08-05T16:31:21.980Z,23.20
2022-08-05T16:33:49.267Z,23.20
2022-08-05T16:36:20.535Z,23.10
2022-08-05T16:38:54.827Z,23.10
2022-08-05T16:42:14.139Z,23.20
2022-08-05T16:44:14.745Z,23.10
2022-08-05T16:46:56.036Z,23.20
2022-08-05T16:49:23.623Z,23.30
2022-08-05T16:51:51.385Z,23.50
2022-08-05T16:54:30.324Z,23.80
2022-08-05T16:57:00.135Z,23.90
2022-08-05T16:59:30.778Z,24.00
2022-08-05T17:01:57.857Z,23.90
2022-08-05T17:04:28.130Z,23.60
2022-08-05T17:07:00.010Z,23.70
2022-08-05T17:09:29.535Z,23.60
2022-08-05T17:11:59.717Z,23.40
2022-08-05T17:14:37.386Z,23.20
2022-08-05T17:17:14.229Z,23.10
2022-08-05T17:19:45.398Z,23.40
2022-08-05T17:22:24.806Z,23.50
2022-08-05T17:24:58.095Z,23.40
2022-08-05T17:27:33.492Z,23.20
2022-08-05T17:30:02.409Z,23.20
2022-08-05T17:32:29.798Z,23.60
2022-08-05T17:34:58.297Z,23.80
2022-08-05T17:37:39.303Z,24.00
2022-08-05T17:40:12.449Z,24.30
2022-08-05T17:42:41.802Z,24.70
2022-08-05T17:45:24.667Z,24.90
2022-08-05T17:47:55.364Z,25.20
2022-08-05T17:50:30.001Z,25.00
2022-08-05T17:53:04.690Z,24.50
2022-08-05T17:55:38.148Z,24.00
2022-08-05T17:58:09.704Z,23.50
2022-08-05T18:00:44.241Z,23.20
2022-08-05T18:03:11.944Z,22.80
2022-08-05T18:05:53.390Z,22.70
2022-08-05T18:08:20.971Z,22.60
2022-08-05T18:10:47.766Z,22.40
2022-08-05T18:13:15.442Z,22.20
2022-08-05T18:15:42.724Z,22.00
2022-08-05T18:18:11.640Z,22.00
2022-08-05T18:20:38.760Z,21.80
2022-08-05T18:23:09.204Z,21.70
2022-08-05T18:25:45.269Z,21.60
2022-08-05T18:28:16.655Z,21.60
2022-08-05T18:30:54.659Z,21.50
2022-08-05T18:33:24.794Z,21.40
2022-08-05T18:36:04.326Z,21.40
2022-08-05T18:38:37.197Z,21.30
2022-08-05T18:41:53.444Z,21.30
2022-08-05T18:43:55.056Z,21.30
2022-08-05T18:46:25.894Z,21.20
2022-08-05T18:48:56.243Z,21.10
2022-08-05T18:52:05.982Z,21.10
2022-08-05T18:54:32.623Z,21.00
2022-08-05T18:57:02.422Z,20.90
2022-08-05T18:59:42.940Z,20.90
2022-08-05T19:02:28.114Z,20.90
2022-08-05T19:05:02.965Z,20.80
2022-08-05T19:07:50.713Z,20.80
2022-08-05T19:10:28.027Z,20.70
2022-08-05T19:12:56.361Z,20.80
2022-08-05T19:15:56.948Z,20.70
2022-08-05T19:18:13.485Z,20.60
2022-08-05T19:20:48.400Z,20.60
2022-08-05T19:23:22.564Z,20.60
2022-08-05T19:26:02.940Z,20.50
2022-08-05T19:28:32.811Z,20.40
2022-08-05T19:31:00.218Z,20.40
2022-08-05T19:33:35.245Z,20.40
2022-08-05T19:36:06.157Z,20.40
2022-08-05T19:38:37.161Z,20.30
2022-08-05T19:41:09.030Z,20.20
2022-08-05T19:44:05.347Z,20.20
2022-08-05T19:46:30.191Z,20.10
2022-08-05T19:49:05.347Z,20.00
2022-08-05T19:52:04.863Z,19.90
2022-08-05T19:54:25.387Z,19.90
2022-08-05T19:57:02.660Z,19.80
2022-08-05T20:00:00.975Z,19.70
2022-08-05T20:02:20.780Z,19.70
2022-08-05T20:04:48.443Z,19.70
2022-08-05T20:07:15.841Z,19.60
2022-08-05T20:10:11.457Z,19.60
2022-08-05T20:12:39.955Z,19.50
2022-08-05T20:15:22.950Z,19.40
2022-08-05T20:18:04.447Z,19.40
2022-08-05T20:20:38.765Z,19.30
2022-08-05T20:23:05.553Z,19.40
2022-08-05T20:25:39.695Z,19.40
2022-08-05T20:28:14.679Z,19.40
2022-08-05T20:30:41.668Z,19.40
2022-08-05T20:33:08.899Z,19.30
2022-08-05T20:35:40.601Z,19.30
2022-08-05T20:38:14.394Z,19.20
2022-08-05T20:40:55.528Z,19.10
2022-08-05T20:43:39.814Z,19.10
2022-08-05T20:46:24.836Z,19.10
2022-08-05T20:48:52.251Z,19.10
2022-08-05T20:51:19.159Z,19.00
2022-08-05T20:53:56.495Z,18.90
2022-08-05T20:56:40.104Z,18.90
2022-08-05T20:59:14.197Z,18.90
2022-08-05T21:01:47.412Z,18.90
2022-08-05T21:04:15.441Z,18.90
2022-08-05T21:06:45.601Z,18.80
2022-08-05T21:09:15.879Z,18.70
2022-08-05T21:12:07.758Z,18.60
2022-08-05T21:14:34.800Z,18.70
2022-08-05T21:17:06.313Z,18.60
2022-08-05T21:19:46.881Z,18.60
2022-08-05T21:22:17.719Z,18.50
2022-08-05T21:24:49.037Z,18.40
2022-08-05T21:27:20.614Z,18.30
2022-08-05T21:29:54.123Z,18.20
2022-08-05T21:32:27.526Z,18.20
2022-08-05T21:35:17.458Z,18.20
2022-08-05T21:37:52.627Z,18.10
2022-08-05T21:40:24.967Z,18.00
2022-08-05T21:42:52.994Z,17.90
2022-08-05T21:45:24.556Z,18.00
2022-08-05T21:47:56.924Z,17.90
2022-08-05T21:50:27.935Z,17.90
2022-08-05T21:52:59.040Z,17.90
2022-08-05T21:56:01.457Z,17.90
2022-08-05T21:58:19.247Z,17.90
2022-08-05T22:00:51.365Z,17.80
2022-08-05T22:03:48.223Z,17.80
2022-08-05T22:06:06.263Z,17.70
2022-08-05T22:08:37.779Z,17.70
2022-08-05T22:11:11.910Z,17.70
2022-08-05T22:14:33.491Z,17.70
2022-08-05T22:16:42.137Z,17.70
2022-08-05T22:20:01.265Z,17.70
2022-08-05T22:22:03.426Z,17.70
2022-08-05T22:24:53.457Z,17.60
2022-08-05T22:28:08.571Z,17.50
2022-08-05T22:30:34.889Z,17.40
2022-08-05T22:33:02.690Z,17.30
2022-08-05T22:35:38.705Z,17.30
2022-08-05T22:38:15.865Z,17.30
2022-08-05T22:40:49.913Z,17.20
2022-08-05T22:43:36.294Z,17.20
2022-08-05T22:46:12.081Z,17.30
2022-08-05T22:48:50.343Z,17.30
2022-08-05T22:51:22.683Z,17.20
2022-08-05T22:53:56.688Z,17.20
2022-08-05T22:56:30.010Z,17.20
2022-08-05T22:59:04.170Z,17.20
2022-08-05T23:02:05.063Z,17.10
2022-08-05T23:04:33.666Z,17.00
2022-08-05T23:07:00.655Z,17.00
2022-08-05T23:09:57.728Z,17.00
2022-08-05T23:12:16.157Z,17.00
2022-08-05T23:14:43.797Z,17.00
2022-08-05T23:17:34.542Z,17.00
2022-08-05T23:20:16.358Z,17.00
2022-08-05T23:22:47.156Z,17.00
2022-08-05T23:25:50.065Z,17.00
2022-08-05T23:28:03.333Z,17.10
2022-08-05T23:30:40.464Z,17.00
2022-08-05T23:33:16.300Z,16.90
2022-08-05T23:35:55.182Z,16.90
2022-08-05T23:38:23.403Z,17.00
2022-08-05T23:40:52.458Z,16.90
2022-08-05T23:43:25.536Z,16.90
2022-08-05T23:46:20.649Z,16.90
2022-08-05T23:49:00.236Z,16.90
2022-08-05T23:51:54.875Z,16.90
2022-08-05T23:54:30.467Z,16.90
2022-08-05T23:57:03.346Z,16.80
